sensor_id;sensor_type;location;lat;lon;timestamp;P1;durP1;ratioP1;P2;durP2;ratioP2
16906;SDS011;8570;52.380;4.654;2023-02-15T00:03:52;64.43;;;41.30;;
16906;SDS011;8570;52.380;4.654;2023-02-15T00:08:54;58.57;;;38.67;;
16906;SDS011;8570;52.380;4.654;2023-02-15T00:13:56;60.13;;;38.80;;
16906;SDS011;8570;52.380;4.654;2023-02-15T00:19:00;58.37;;;38.10;;
16906;SDS011;8570;52.380;4.654;2023-02-15T00:24:03;52.13;;;35.50;;
16906;SDS011;8570;52.380;4.654;2023-02-15T00:29:06;58.37;;;37.93;;
16906;SDS011;8570;52.380;4.654;2023-02-15T00:34:12;57.10;;;36.43;;
16906;SDS011;8570;52.380;4.654;2023-02-15T00:39:15;50.03;;;33.53;;
16906;SDS011;8570;52.380;4.654;2023-02-15T00:44:18;46.80;;;30.83;;
16906;SDS011;8570;52.380;4.654;2023-02-15T00:49:21;44.00;;;30.90;;
16906;SDS011;8570;52.380;4.654;2023-02-15T00:54:23;43.23;;;30.03;;
16906;SDS011;8570;52.380;4.654;2023-02-15T00:59:25;42.07;;;28.93;;
16906;SDS011;8570;52.380;4.654;2023-02-15T01:04:29;43.27;;;30.87;;
16906;SDS011;8570;52.380;4.654;2023-02-15T01:09:31;52.30;;;34.47;;
16906;SDS011;8570;52.380;4.654;2023-02-15T01:14:33;56.57;;;36.00;;
16906;SDS011;8570;52.380;4.654;2023-02-15T01:19:36;50.13;;;33.80;;
16906;SDS011;8570;52.380;4.654;2023-02-15T01:24:38;50.10;;;33.57;;
16906;SDS011;8570;52.380;4.654;2023-02-15T01:29:40;47.20;;;31.83;;
16906;SDS011;8570;52.380;4.654;2023-02-15T01:34:43;44.73;;;31.20;;
16906;SDS011;8570;52.380;4.654;2023-02-15T01:39:45;52.43;;;32.67;;
16906;SDS011;8570;52.380;4.654;2023-02-15T01:44:48;47.90;;;32.10;;
16906;SDS011;8570;52.380;4.654;2023-02-15T01:49:55;52.40;;;35.33;;
16906;SDS011;8570;52.380;4.654;2023-02-15T01:55:03;55.13;;;36.57;;
16906;SDS011;8570;52.380;4.654;2023-02-15T02:00:07;58.83;;;38.40;;
16906;SDS011;8570;52.380;4.654;2023-02-15T02:05:11;59.20;;;38.80;;
16906;SDS011;8570;52.380;4.654;2023-02-15T02:10:15;55.57;;;35.97;;
16906;SDS011;8570;52.380;4.654;2023-02-15T02:15:20;56.27;;;35.93;;
16906;SDS011;8570;52.380;4.654;2023-02-15T02:20:35;55.27;;;35.00;;
16906;SDS011;8570;52.380;4.654;2023-02-15T02:26:06;55.97;;;35.40;;
16906;SDS011;8570;52.380;4.654;2023-02-15T02:36:48;54.67;;;34.73;;
16906;SDS011;8570;52.380;4.654;2023-02-15T02:41:56;55.63;;;34.20;;
16906;SDS011;8570;52.380;4.654;2023-02-15T02:47:05;54.40;;;34.00;;
16906;SDS011;8570;52.380;4.654;2023-02-15T02:57:39;56.93;;;35.30;;
16906;SDS011;8570;52.380;4.654;2023-02-15T03:02:48;53.30;;;33.77;;
16906;SDS011;8570;52.380;4.654;2023-02-15T03:07:55;53.27;;;34.30;;
16906;SDS011;8570;52.380;4.654;2023-02-15T03:12:58;56.37;;;34.43;;
16906;SDS011;8570;52.380;4.654;2023-02-15T03:18:00;52.97;;;33.13;;
16906;SDS011;8570;52.380;4.654;2023-02-15T03:23:06;54.13;;;33.63;;
16906;SDS011;8570;52.380;4.654;2023-02-15T03:28:14;53.47;;;34.33;;
16906;SDS011;8570;52.380;4.654;2023-02-15T03:33:20;50.87;;;33.07;;
16906;SDS011;8570;52.380;4.654;2023-02-15T03:38:28;50.70;;;33.77;;
16906;SDS011;8570;52.380;4.654;2023-02-15T03:43:34;49.10;;;33.20;;
16906;SDS011;8570;52.380;4.654;2023-02-15T03:48:43;55.87;;;33.53;;
16906;SDS011;8570;52.380;4.654;2023-02-15T03:53:49;44.00;;;29.60;;
16906;SDS011;8570;52.380;4.654;2023-02-15T03:58:53;46.10;;;30.63;;
16906;SDS011;8570;52.380;4.654;2023-02-15T04:04:13;43.73;;;27.50;;
16906;SDS011;8570;52.380;4.654;2023-02-15T04:09:23;45.50;;;28.50;;
16906;SDS011;8570;52.380;4.654;2023-02-15T04:14:42;49.27;;;29.03;;
16906;SDS011;8570;52.380;4.654;2023-02-15T04:20:05;41.77;;;26.53;;
16906;SDS011;8570;52.380;4.654;2023-02-15T04:25:31;39.80;;;25.03;;
16906;SDS011;8570;52.380;4.654;2023-02-15T04:30:33;40.83;;;26.40;;
16906;SDS011;8570;52.380;4.654;2023-02-15T04:35:35;43.40;;;26.57;;
16906;SDS011;8570;52.380;4.654;2023-02-15T04:40:38;39.87;;;25.77;;
16906;SDS011;8570;52.380;4.654;2023-02-15T04:45:41;43.93;;;28.67;;
16906;SDS011;8570;52.380;4.654;2023-02-15T04:50:43;46.33;;;28.10;;
16906;SDS011;8570;52.380;4.654;2023-02-15T04:55:46;45.03;;;28.20;;
16906;SDS011;8570;52.380;4.654;2023-02-15T05:00:48;45.30;;;27.80;;
16906;SDS011;8570;52.380;4.654;2023-02-15T05:05:50;37.80;;;25.33;;
16906;SDS011;8570;52.380;4.654;2023-02-15T05:10:54;42.43;;;26.03;;
16906;SDS011;8570;52.380;4.654;2023-02-15T05:15:56;40.13;;;25.23;;
16906;SDS011;8570;52.380;4.654;2023-02-15T05:20:58;35.10;;;24.67;;
16906;SDS011;8570;52.380;4.654;2023-02-15T05:26:01;39.33;;;25.23;;
16906;SDS011;8570;52.380;4.654;2023-02-15T05:31:20;39.70;;;25.00;;
16906;SDS011;8570;52.380;4.654;2023-02-15T05:36:22;44.30;;;27.47;;
16906;SDS011;8570;52.380;4.654;2023-02-15T05:41:26;43.77;;;27.97;;
16906;SDS011;8570;52.380;4.654;2023-02-15T05:46:28;44.83;;;28.00;;
16906;SDS011;8570;52.380;4.654;2023-02-15T05:51:30;47.23;;;27.10;;
16906;SDS011;8570;52.380;4.654;2023-02-15T05:56:33;45.27;;;27.73;;
16906;SDS011;8570;52.380;4.654;2023-02-15T06:01:35;39.30;;;24.43;;
16906;SDS011;8570;52.380;4.654;2023-02-15T06:06:37;37.50;;;25.17;;
16906;SDS011;8570;52.380;4.654;2023-02-15T06:11:40;39.70;;;26.30;;
16906;SDS011;8570;52.380;4.654;2023-02-15T06:16:42;43.13;;;27.33;;
16906;SDS011;8570;52.380;4.654;2023-02-15T06:21:44;47.77;;;27.73;;
16906;SDS011;8570;52.380;4.654;2023-02-15T06:26:47;46.13;;;27.97;;
16906;SDS011;8570;52.380;4.654;2023-02-15T06:31:49;38.07;;;26.03;;
16906;SDS011;8570;52.380;4.654;2023-02-15T06:36:51;41.93;;;27.60;;
16906;SDS011;8570;52.380;4.654;2023-02-15T06:41:55;43.63;;;26.63;;
16906;SDS011;8570;52.380;4.654;2023-02-15T06:46:57;47.20;;;28.23;;
16906;SDS011;8570;52.380;4.654;2023-02-15T06:51:58;42.07;;;27.87;;
16906;SDS011;8570;52.380;4.654;2023-02-15T06:57:02;43.17;;;27.73;;
16906;SDS011;8570;52.380;4.654;2023-02-15T07:02:04;47.43;;;27.73;;
16906;SDS011;8570;52.380;4.654;2023-02-15T07:07:07;45.10;;;26.93;;
16906;SDS011;8570;52.380;4.654;2023-02-15T07:12:12;42.53;;;27.27;;
16906;SDS011;8570;52.380;4.654;2023-02-15T07:17:32;47.20;;;27.93;;
16906;SDS011;8570;52.380;4.654;2023-02-15T07:22:34;41.83;;;27.30;;
16906;SDS011;8570;52.380;4.654;2023-02-15T07:27:38;44.77;;;28.20;;
16906;SDS011;8570;52.380;4.654;2023-02-15T07:32:42;43.73;;;28.27;;
16906;SDS011;8570;52.380;4.654;2023-02-15T07:37:58;46.13;;;28.07;;
16906;SDS011;8570;52.380;4.654;2023-02-15T07:43:01;45.57;;;28.00;;
16906;SDS011;8570;52.380;4.654;2023-02-15T07:48:03;46.97;;;27.77;;
16906;SDS011;8570;52.380;4.654;2023-02-15T07:53:06;47.37;;;28.17;;
16906;SDS011;8570;52.380;4.654;2023-02-15T07:58:09;40.13;;;26.87;;
16906;SDS011;8570;52.380;4.654;2023-02-15T08:03:14;46.97;;;28.60;;
16906;SDS011;8570;52.380;4.654;2023-02-15T08:08:16;50.60;;;29.70;;
16906;SDS011;8570;52.380;4.654;2023-02-15T08:13:32;46.70;;;29.33;;
16906;SDS011;8570;52.380;4.654;2023-02-15T08:18:33;47.03;;;30.57;;
16906;SDS011;8570;52.380;4.654;2023-02-15T08:23:35;50.53;;;30.07;;
16906;SDS011;8570;52.380;4.654;2023-02-15T08:28:39;53.83;;;30.50;;
16906;SDS011;8570;52.380;4.654;2023-02-15T08:33:42;49.43;;;30.73;;
16906;SDS011;8570;52.380;4.654;2023-02-15T08:38:45;53.00;;;32.17;;
16906;SDS011;8570;52.380;4.654;2023-02-15T08:43:53;51.20;;;32.80;;
16906;SDS011;8570;52.380;4.654;2023-02-15T08:48:58;56.40;;;33.10;;
16906;SDS011;8570;52.380;4.654;2023-02-15T08:54:01;57.33;;;32.87;;
16906;SDS011;8570;52.380;4.654;2023-02-15T08:59:07;61.17;;;35.60;;
16906;SDS011;8570;52.380;4.654;2023-02-15T09:04:14;54.47;;;35.87;;
16906;SDS011;8570;52.380;4.654;2023-02-15T09:09:18;53.70;;;33.77;;
16906;SDS011;8570;52.380;4.654;2023-02-15T09:14:24;63.33;;;35.20;;
16906;SDS011;8570;52.380;4.654;2023-02-15T09:19:27;63.27;;;37.37;;
16906;SDS011;8570;52.380;4.654;2023-02-15T09:24:33;55.67;;;34.57;;
16906;SDS011;8570;52.380;4.654;2023-02-15T09:29:36;60.53;;;37.77;;
16906;SDS011;8570;52.380;4.654;2023-02-15T09:34:44;59.87;;;38.70;;
16906;SDS011;8570;52.380;4.654;2023-02-15T09:39:52;63.70;;;40.13;;
16906;SDS011;8570;52.380;4.654;2023-02-15T09:50:48;64.77;;;40.47;;
16906;SDS011;8570;52.380;4.654;2023-02-15T09:56:10;71.83;;;43.53;;
16906;SDS011;8570;52.380;4.654;2023-02-15T10:07:53;71.43;;;45.17;;
16906;SDS011;8570;52.380;4.654;2023-02-15T10:13:24;67.53;;;43.93;;
16906;SDS011;8570;52.380;4.654;2023-02-15T10:24:14;65.50;;;43.23;;
16906;SDS011;8570;52.380;4.654;2023-02-15T10:29:29;67.03;;;41.90;;
16906;SDS011;8570;52.380;4.654;2023-02-15T10:34:43;56.83;;;37.67;;
16906;SDS011;8570;52.380;4.654;2023-02-15T10:39:52;57.33;;;37.53;;
16906;SDS011;8570;52.380;4.654;2023-02-15T10:50:32;53.37;;;35.63;;
16906;SDS011;8570;52.380;4.654;2023-02-15T10:56:05;54.73;;;36.07;;
16906;SDS011;8570;52.380;4.654;2023-02-15T11:01:47;56.20;;;36.00;;
16906;SDS011;8570;52.380;4.654;2023-02-15T11:07:11;55.67;;;34.83;;
16906;SDS011;8570;52.380;4.654;2023-02-15T11:12:30;62.17;;;35.23;;
16906;SDS011;8570;52.380;4.654;2023-02-15T11:17:46;57.30;;;36.30;;
16906;SDS011;8570;52.380;4.654;2023-02-15T11:23:33;63.10;;;37.43;;
16906;SDS011;8570;52.380;4.654;2023-02-15T11:34:48;51.27;;;33.30;;
16906;SDS011;8570;52.380;4.654;2023-02-15T11:39:58;50.40;;;34.50;;
16906;SDS011;8570;52.380;4.654;2023-02-15T11:45:02;48.40;;;33.80;;
16906;SDS011;8570;52.380;4.654;2023-02-15T11:50:13;53.53;;;35.57;;
16906;SDS011;8570;52.380;4.654;2023-02-15T11:55:31;53.93;;;34.77;;
16906;SDS011;8570;52.380;4.654;2023-02-15T12:00:45;51.03;;;34.30;;
16906;SDS011;8570;52.380;4.654;2023-02-15T12:05:53;50.50;;;35.10;;
16906;SDS011;8570;52.380;4.654;2023-02-15T12:11:07;48.80;;;34.20;;
16906;SDS011;8570;52.380;4.654;2023-02-15T12:16:12;54.88;;;35.38;;
16906;SDS011;8570;52.380;4.654;2023-02-15T12:21:24;54.55;;;35.80;;
16906;SDS011;8570;52.380;4.654;2023-02-15T12:26:32;53.63;;;34.17;;
16906;SDS011;8570;52.380;4.654;2023-02-15T12:31:38;50.58;;;34.47;;
16906;SDS011;8570;52.380;4.654;2023-02-15T12:36:46;50.30;;;32.75;;
16906;SDS011;8570;52.380;4.654;2023-02-15T12:42:04;54.72;;;35.90;;
16906;SDS011;8570;52.380;4.654;2023-02-15T12:47:19;51.30;;;35.45;;
16906;SDS011;8570;52.380;4.654;2023-02-15T12:52:25;51.72;;;34.10;;
16906;SDS011;8570;52.380;4.654;2023-02-15T12:57:31;56.03;;;36.35;;
16906;SDS011;8570;52.380;4.654;2023-02-15T13:02:41;51.70;;;35.92;;
16906;SDS011;8570;52.380;4.654;2023-02-15T13:07:46;56.83;;;36.75;;
16906;SDS011;8570;52.380;4.654;2023-02-15T13:13:00;54.45;;;36.40;;
16906;SDS011;8570;52.380;4.654;2023-02-15T13:18:13;57.10;;;37.00;;
16906;SDS011;8570;52.380;4.654;2023-02-15T13:23:36;56.72;;;35.97;;
16906;SDS011;8570;52.380;4.654;2023-02-15T13:28:42;54.53;;;36.88;;
16906;SDS011;8570;52.380;4.654;2023-02-15T13:39:29;50.13;;;33.20;;
16906;SDS011;8570;52.380;4.654;2023-02-15T13:44:52;50.33;;;31.98;;
16906;SDS011;8570;52.380;4.654;2023-02-15T13:55:55;49.03;;;34.28;;
16906;SDS011;8570;52.380;4.654;2023-02-15T14:07:08;51.78;;;34.47;;
16906;SDS011;8570;52.380;4.654;2023-02-15T14:12:42;57.10;;;35.20;;
16906;SDS011;8570;52.380;4.654;2023-02-15T14:23:56;56.33;;;37.08;;
16906;SDS011;8570;52.380;4.654;2023-02-15T14:29:40;52.05;;;35.60;;
16906;SDS011;8570;52.380;4.654;2023-02-15T14:35:13;52.80;;;35.58;;
16906;SDS011;8570;52.380;4.654;2023-02-15T14:40:30;54.60;;;34.80;;
16906;SDS011;8570;52.380;4.654;2023-02-15T14:46:00;52.45;;;34.38;;
16906;SDS011;8570;52.380;4.654;2023-02-15T14:51:09;47.65;;;34.08;;
16906;SDS011;8570;52.380;4.654;2023-02-15T15:02:13;47.13;;;33.33;;
16906;SDS011;8570;52.380;4.654;2023-02-15T15:07:25;50.58;;;33.97;;
16906;SDS011;8570;52.380;4.654;2023-02-15T15:12:41;46.78;;;32.85;;
16906;SDS011;8570;52.380;4.654;2023-02-15T15:17:55;48.22;;;33.33;;
16906;SDS011;8570;52.380;4.654;2023-02-15T15:29:05;48.42;;;32.97;;
16906;SDS011;8570;52.380;4.654;2023-02-15T15:34:32;50.60;;;32.72;;
16906;SDS011;8570;52.380;4.654;2023-02-15T15:40:11;49.92;;;32.25;;
16906;SDS011;8570;52.380;4.654;2023-02-15T15:45:34;54.58;;;32.10;;
16906;SDS011;8570;52.380;4.654;2023-02-15T15:56:43;47.88;;;32.05;;
16906;SDS011;8570;52.380;4.654;2023-02-15T16:03:50;47.63;;;31.98;;
16906;SDS011;8570;52.380;4.654;2023-02-15T16:07:53;49.38;;;33.53;;
16906;SDS011;8570;52.380;4.654;2023-02-15T16:13:07;50.05;;;32.65;;
16906;SDS011;8570;52.380;4.654;2023-02-15T16:18:23;46.70;;;31.88;;
16906;SDS011;8570;52.380;4.654;2023-02-15T16:23:43;51.65;;;33.30;;
16906;SDS011;8570;52.380;4.654;2023-02-15T16:29:27;49.67;;;32.13;;
16906;SDS011;8570;52.380;4.654;2023-02-15T16:45:59;48.50;;;32.65;;
16906;SDS011;8570;52.380;4.654;2023-02-15T16:51:20;48.92;;;31.25;;
16906;SDS011;8570;52.380;4.654;2023-02-15T16:56:53;49.17;;;33.38;;
16906;SDS011;8570;52.380;4.654;2023-02-15T17:02:27;50.87;;;33.20;;
16906;SDS011;8570;52.380;4.654;2023-02-15T17:13:23;49.33;;;33.27;;
16906;SDS011;8570;52.380;4.654;2023-02-15T17:18:40;49.07;;;33.17;;
16906;SDS011;8570;52.380;4.654;2023-02-15T17:23:58;48.60;;;32.70;;
16906;SDS011;8570;52.380;4.654;2023-02-15T17:35:45;54.63;;;34.50;;
16906;SDS011;8570;52.380;4.654;2023-02-15T17:41:41;54.50;;;33.93;;
16906;SDS011;8570;52.380;4.654;2023-02-15T17:47:06;51.40;;;34.70;;
16906;SDS011;8570;52.380;4.654;2023-02-15T17:52:57;56.83;;;34.57;;
16906;SDS011;8570;52.380;4.654;2023-02-15T17:58:13;51.57;;;33.63;;
16906;SDS011;8570;52.380;4.654;2023-02-15T18:03:40;51.80;;;34.57;;
16906;SDS011;8570;52.380;4.654;2023-02-15T18:09:22;50.93;;;34.30;;
16906;SDS011;8570;52.380;4.654;2023-02-15T18:14:48;54.30;;;34.60;;
16906;SDS011;8570;52.380;4.654;2023-02-15T18:20:14;55.27;;;36.57;;
16906;SDS011;8570;52.380;4.654;2023-02-15T18:32:07;55.07;;;36.20;;
16906;SDS011;8570;52.380;4.654;2023-02-15T18:37:53;54.90;;;35.23;;
16906;SDS011;8570;52.380;4.654;2023-02-15T19:06:48;53.87;;;35.47;;
16906;SDS011;8570;52.380;4.654;2023-02-15T19:17:53;52.03;;;35.67;;
16906;SDS011;8570;52.380;4.654;2023-02-15T19:28:40;52.00;;;33.47;;
16906;SDS011;8570;52.380;4.654;2023-02-15T19:33:51;53.77;;;33.73;;
16906;SDS011;8570;52.380;4.654;2023-02-15T19:45:29;52.20;;;34.00;;
16906;SDS011;8570;52.380;4.654;2023-02-15T19:51:07;51.40;;;33.07;;
16906;SDS011;8570;52.380;4.654;2023-02-15T20:08:02;48.10;;;32.83;;
16906;SDS011;8570;52.380;4.654;2023-02-15T20:13:16;53.83;;;32.47;;
16906;SDS011;8570;52.380;4.654;2023-02-15T20:18:26;47.53;;;32.57;;
16906;SDS011;8570;52.380;4.654;2023-02-15T20:23:35;49.50;;;31.27;;
16906;SDS011;8570;52.380;4.654;2023-02-15T20:28:44;52.43;;;34.10;;
16906;SDS011;8570;52.380;4.654;2023-02-15T20:39:49;42.97;;;30.57;;
16906;SDS011;8570;52.380;4.654;2023-02-15T20:45:27;49.50;;;31.47;;
16906;SDS011;8570;52.380;4.654;2023-02-15T20:50:42;51.77;;;30.53;;
16906;SDS011;8570;52.380;4.654;2023-02-15T20:56:08;47.13;;;31.23;;
16906;SDS011;8570;52.380;4.654;2023-02-15T21:01:17;49.63;;;31.60;;
16906;SDS011;8570;52.380;4.654;2023-02-15T21:06:22;48.53;;;31.37;;
16906;SDS011;8570;52.380;4.654;2023-02-15T21:11:31;48.17;;;29.93;;
16906;SDS011;8570;52.380;4.654;2023-02-15T21:16:46;50.37;;;31.03;;
16906;SDS011;8570;52.380;4.654;2023-02-15T21:22:02;45.63;;;29.20;;
16906;SDS011;8570;52.380;4.654;2023-02-15T21:27:13;43.70;;;29.63;;
16906;SDS011;8570;52.380;4.654;2023-02-15T21:32:18;44.70;;;29.70;;
16906;SDS011;8570;52.380;4.654;2023-02-15T21:37:31;43.60;;;29.50;;
16906;SDS011;8570;52.380;4.654;2023-02-15T21:42:51;46.93;;;30.33;;
16906;SDS011;8570;52.380;4.654;2023-02-15T21:48:19;48.17;;;30.80;;
16906;SDS011;8570;52.380;4.654;2023-02-15T21:53:30;47.33;;;31.87;;
16906;SDS011;8570;52.380;4.654;2023-02-15T21:58:40;43.97;;;30.97;;
16906;SDS011;8570;52.380;4.654;2023-02-15T22:03:50;48.70;;;31.13;;
16906;SDS011;8570;52.380;4.654;2023-02-15T22:08:54;49.83;;;30.60;;
16906;SDS011;8570;52.380;4.654;2023-02-15T22:14:00;44.30;;;30.57;;
16906;SDS011;8570;52.380;4.654;2023-02-15T22:19:09;46.03;;;31.17;;
16906;SDS011;8570;52.380;4.654;2023-02-15T22:24:36;46.27;;;31.67;;
16906;SDS011;8570;52.380;4.654;2023-02-15T22:29:51;46.00;;;30.33;;
16906;SDS011;8570;52.380;4.654;2023-02-15T22:35:02;52.97;;;31.20;;
16906;SDS011;8570;52.380;4.654;2023-02-15T22:40:12;44.87;;;30.57;;
16906;SDS011;8570;52.380;4.654;2023-02-15T22:45:17;45.63;;;29.20;;
16906;SDS011;8570;52.380;4.654;2023-02-15T22:50:27;43.90;;;31.33;;
16906;SDS011;8570;52.380;4.654;2023-02-15T22:55:31;49.10;;;32.53;;
16906;SDS011;8570;52.380;4.654;2023-02-15T23:00:39;46.47;;;30.07;;
16906;SDS011;8570;52.380;4.654;2023-02-15T23:05:47;45.77;;;30.80;;
16906;SDS011;8570;52.380;4.654;2023-02-15T23:11:01;43.33;;;28.60;;
16906;SDS011;8570;52.380;4.654;2023-02-15T23:16:18;43.13;;;28.40;;
16906;SDS011;8570;52.380;4.654;2023-02-15T23:21:31;42.93;;;27.10;;
16906;SDS011;8570;52.380;4.654;2023-02-15T23:26:48;38.73;;;26.73;;
16906;SDS011;8570;52.380;4.654;2023-02-15T23:31:55;41.47;;;27.73;;
16906;SDS011;8570;52.380;4.654;2023-02-15T23:36:58;39.90;;;26.10;;
16906;SDS011;8570;52.380;4.654;2023-02-15T23:42:04;37.63;;;25.83;;
16906;SDS011;8570;52.380;4.654;2023-02-15T23:47:16;38.00;;;25.57;;
16906;SDS011;8570;52.380;4.654;2023-02-15T23:52:20;35.10;;;24.80;;
16906;SDS011;8570;52.380;4.654;2023-02-15T23:57:25;36.67;;;25.20;;
